createdAt,value
2022-10-06T00:01:13.272Z,1.90
2022-10-06T00:03:40.867Z,2.00
2022-10-06T00:06:08.787Z,1.90
2022-10-06T00:08:37.572Z,2.20
2022-10-06T00:11:05.218Z,1.90
2022-10-06T00:13:32.945Z,2.03
2022-10-06T00:16:00.803Z,2.07
2022-10-06T00:18:28.817Z,1.70
2022-10-06T00:20:57.262Z,2.20
2022-10-06T00:23:24.617Z,1.73
2022-10-06T00:25:52.013Z,1.93
2022-10-06T00:28:19.475Z,1.90
2022-10-06T00:30:47.031Z,2.07
2022-10-06T00:33:16.275Z,1.90
2022-10-06T00:35:44.306Z,1.60
2022-10-06T00:38:13.243Z,1.77
2022-10-06T00:40:44.941Z,2.10
2022-10-06T00:43:32.613Z,2.00
2022-10-06T00:46:00.093Z,2.00
2022-10-06T00:48:28.100Z,1.90
2022-10-06T00:50:57.632Z,1.63
2022-10-06T00:53:30.113Z,2.00
2022-10-06T00:55:57.571Z,1.93
2022-10-06T00:58:25.677Z,1.90
2022-10-06T01:00:54.414Z,1.87
2022-10-06T01:03:30.539Z,1.67
2022-10-06T01:05:58.378Z,1.93
2022-10-06T01:08:26.610Z,1.80
2022-10-06T01:10:54.352Z,1.60
2022-10-06T01:13:22.183Z,1.70
2022-10-06T01:16:11.486Z,2.40
2022-10-06T01:18:40.599Z,2.47
2022-10-06T01:21:15.023Z,2.40
2022-10-06T01:23:42.553Z,2.10
2022-10-06T01:26:10.994Z,2.27
2022-10-06T01:28:39.565Z,1.67
2022-10-06T01:31:07.568Z,2.13
2022-10-06T01:33:34.910Z,1.67
2022-10-06T01:36:02.301Z,2.07
2022-10-06T01:38:29.865Z,1.83
2022-10-06T01:40:57.441Z,1.80
2022-10-06T01:43:24.832Z,1.80
2022-10-06T01:45:56.197Z,1.73
2022-10-06T01:48:24.253Z,1.80
2022-10-06T01:50:51.693Z,2.00
2022-10-06T01:53:19.169Z,1.87
2022-10-06T01:55:46.701Z,2.20
2022-10-06T01:58:14.225Z,1.73
2022-10-06T02:00:41.567Z,2.10
2022-10-06T02:03:09.094Z,1.90
2022-10-06T02:05:36.555Z,1.90
2022-10-06T02:08:04.065Z,1.67
2022-10-06T02:10:31.346Z,1.80
2022-10-06T02:12:58.795Z,1.87
2022-10-06T02:15:27.509Z,1.90
2022-10-06T02:17:55.601Z,1.67
2022-10-06T02:20:23.002Z,1.73
2022-10-06T02:22:50.379Z,1.47
2022-10-06T02:25:18.168Z,1.80
2022-10-06T02:27:45.586Z,1.80
2022-10-06T02:30:14.550Z,1.70
2022-10-06T02:32:42.908Z,1.90
2022-10-06T02:35:11.410Z,1.60
2022-10-06T02:37:38.847Z,2.43
2022-10-06T02:40:06.481Z,2.07
2022-10-06T02:42:35.726Z,2.40
2022-10-06T02:45:03.155Z,1.70
2022-10-06T02:47:32.611Z,2.00
2022-10-06T02:50:05.375Z,1.60
2022-10-06T02:52:34.417Z,1.90
2022-10-06T02:55:03.196Z,1.80
2022-10-06T02:57:33.032Z,1.73
2022-10-06T03:00:00.576Z,2.00
2022-10-06T03:02:30.322Z,1.97
2022-10-06T03:04:57.777Z,1.80
2022-10-06T03:07:25.193Z,1.90
2022-10-06T03:09:52.674Z,2.30
2022-10-06T03:12:20.136Z,1.63
2022-10-06T03:14:47.457Z,1.90
2022-10-06T03:17:14.863Z,1.63
2022-10-06T03:19:42.680Z,2.00
2022-10-06T03:22:10.659Z,1.87
2022-10-06T03:24:37.950Z,1.90
2022-10-06T03:27:05.317Z,2.03
2022-10-06T03:29:35.539Z,1.67
2022-10-06T03:32:03.250Z,2.30
2022-10-06T03:34:30.607Z,1.83
2022-10-06T03:36:58.053Z,2.23
2022-10-06T03:39:25.459Z,2.27
2022-10-06T03:41:52.793Z,1.90
2022-10-06T03:44:22.123Z,1.60
2022-10-06T03:46:49.690Z,1.70
2022-10-06T03:49:17.073Z,2.00
2022-10-06T03:51:44.533Z,1.70
2022-10-06T03:54:12.618Z,1.67
2022-10-06T03:56:41.274Z,1.90
2022-10-06T03:59:10.242Z,2.00
2022-10-06T04:01:39.481Z,2.17
2022-10-06T04:04:07.347Z,1.90
2022-10-06T04:06:35.913Z,1.70
2022-10-06T04:09:03.455Z,1.70
2022-10-06T04:11:32.558Z,1.50
2022-10-06T04:14:01.482Z,1.93
2022-10-06T04:16:30.264Z,1.80
2022-10-06T04:19:01.801Z,1.97
2022-10-06T04:21:30.113Z,2.50
2022-10-06T04:23:58.511Z,3.10
2022-10-06T04:26:27.309Z,1.97
2022-10-06T04:28:54.877Z,1.97
2022-10-06T04:31:32.946Z,1.97
2022-10-06T04:34:01.354Z,1.67
2022-10-06T04:36:32.905Z,1.93
2022-10-06T04:39:01.554Z,3.00
2022-10-06T04:41:30.050Z,2.20
2022-10-06T04:43:57.413Z,2.00
2022-10-06T04:49:19.490Z,2.17
2022-10-06T04:51:48.437Z,2.10
2022-10-06T04:54:15.856Z,2.13
2022-10-06T04:56:46.641Z,2.40
2022-10-06T04:59:14.072Z,1.93
2022-10-06T05:01:41.427Z,2.17
2022-10-06T05:04:08.985Z,1.70
2022-10-06T05:06:41.313Z,2.03
2022-10-06T05:09:10.625Z,2.10
2022-10-06T05:11:38.359Z,2.30
2022-10-06T05:14:06.544Z,2.40
2022-10-06T05:16:34.053Z,2.20
2022-10-06T05:19:01.573Z,1.97
2022-10-06T05:21:30.205Z,1.80
2022-10-06T05:23:57.902Z,1.60
2022-10-06T05:26:27.806Z,1.80
2022-10-06T05:28:55.335Z,2.00
2022-10-06T05:31:24.211Z,1.70
2022-10-06T05:33:51.746Z,2.20
2022-10-06T05:36:20.204Z,2.23
2022-10-06T05:38:48.146Z,1.63
2022-10-06T05:41:21.213Z,2.00
2022-10-06T05:43:48.984Z,1.70
2022-10-06T05:46:28.596Z,1.83
2022-10-06T05:48:57.140Z,1.70
2022-10-06T05:51:30.895Z,2.07
2022-10-06T05:53:59.275Z,1.77
2022-10-06T05:56:30.856Z,1.90
2022-10-06T05:58:59.235Z,1.70
2022-10-06T06:01:26.720Z,1.93
2022-10-06T06:03:55.489Z,2.50
2022-10-06T06:06:24.271Z,2.37
2022-10-06T06:08:56.009Z,2.10
2022-10-06T06:11:27.599Z,2.10
2022-10-06T06:14:14.767Z,2.00
2022-10-06T06:16:42.749Z,2.20
2022-10-06T06:19:10.946Z,2.10
2022-10-06T06:21:41.547Z,1.73
2022-10-06T06:24:08.963Z,1.77
2022-10-06T06:26:37.489Z,2.23
2022-10-06T06:29:05.510Z,7.13
2022-10-06T06:31:40.683Z,4.20
2022-10-06T06:34:08.407Z,2.63
2022-10-06T06:36:37.045Z,2.27
2022-10-06T06:39:06.024Z,2.30
2022-10-06T06:41:35.361Z,2.00
2022-10-06T06:44:02.701Z,2.13
2022-10-06T06:49:06.466Z,1.73
2022-10-06T06:51:34.792Z,2.03
2022-10-06T06:54:02.758Z,2.07
2022-10-06T06:56:35.035Z,2.10
2022-10-06T06:59:03.521Z,1.90
2022-10-06T07:01:30.868Z,1.70
2022-10-06T07:03:59.410Z,2.23
2022-10-06T07:06:28.676Z,2.30
2022-10-06T07:08:57.735Z,1.90
2022-10-06T07:11:28.697Z,2.00
2022-10-06T07:14:03.266Z,1.97
2022-10-06T07:16:49.833Z,4.13
2022-10-06T07:19:36.980Z,2.17
2022-10-06T07:22:28.968Z,2.00
2022-10-06T07:25:12.911Z,2.10
2022-10-06T07:27:44.713Z,2.10
2022-10-06T07:30:19.450Z,1.97
2022-10-06T07:32:47.599Z,2.40
2022-10-06T07:35:16.797Z,2.30
2022-10-06T07:37:44.725Z,2.27
2022-10-06T07:40:12.154Z,2.67
2022-10-06T07:42:51.881Z,2.30
2022-10-06T07:45:42.227Z,2.20
2022-10-06T07:48:19.996Z,2.50
2022-10-06T07:50:49.287Z,2.30
2022-10-06T07:53:17.784Z,2.67
2022-10-06T07:55:46.858Z,2.87
2022-10-06T07:58:26.171Z,2.53
2022-10-06T08:00:53.722Z,2.13
2022-10-06T08:03:21.381Z,2.30
2022-10-06T08:05:49.739Z,2.30
2022-10-06T08:08:17.283Z,2.33
2022-10-06T08:10:44.923Z,2.00
2022-10-06T08:13:12.313Z,2.20
2022-10-06T08:15:39.814Z,2.33
2022-10-06T08:18:21.427Z,2.40
2022-10-06T08:20:55.629Z,2.67
2022-10-06T08:23:23.033Z,2.33
2022-10-06T08:25:54.386Z,2.20
2022-10-06T08:28:22.632Z,1.83
2022-10-06T08:30:52.470Z,1.90
2022-10-06T08:33:21.506Z,2.13
2022-10-06T08:35:49.104Z,2.00
2022-10-06T08:38:16.534Z,1.95
2022-10-06T08:40:50.454Z,1.77
2022-10-06T08:43:20.524Z,2.07
2022-10-06T08:45:48.593Z,2.10
2022-10-06T08:48:19.737Z,2.05
2022-10-06T08:50:50.049Z,2.17
2022-10-06T08:53:23.859Z,1.63
2022-10-06T08:55:54.394Z,1.67
2022-10-06T08:58:40.561Z,1.57
2022-10-06T09:01:23.686Z,1.60
2022-10-06T09:03:52.463Z,1.70
2022-10-06T09:06:39.276Z,1.77
2022-10-06T09:09:27.003Z,1.73
2022-10-06T09:11:57.026Z,1.33
2022-10-06T09:14:30.160Z,1.67
2022-10-06T09:17:00.796Z,1.70
2022-10-06T09:19:38.117Z,1.50
2022-10-06T09:22:07.177Z,1.47
2022-10-06T09:24:37.008Z,1.40
2022-10-06T09:27:17.595Z,1.93
2022-10-06T09:29:46.122Z,1.90
2022-10-06T09:32:14.140Z,1.83
2022-10-06T09:34:43.195Z,1.70
2022-10-06T09:37:12.971Z,1.83
2022-10-06T09:39:48.392Z,1.90
2022-10-06T09:42:27.088Z,2.00
2022-10-06T09:45:06.754Z,1.87
2022-10-06T09:47:46.681Z,1.90
2022-10-06T09:50:27.733Z,1.60
2022-10-06T09:53:01.058Z,2.20
2022-10-06T09:55:37.553Z,1.90
2022-10-06T09:58:15.925Z,1.70
2022-10-06T10:00:47.862Z,1.97
2022-10-06T10:03:16.176Z,2.10
2022-10-06T10:05:50.923Z,2.20
2022-10-06T10:08:22.336Z,2.03
2022-10-06T10:10:50.861Z,2.07
2022-10-06T10:13:24.292Z,1.97
2022-10-06T10:15:53.714Z,2.00
2022-10-06T10:18:26.728Z,1.92
2022-10-06T10:20:57.654Z,1.60
2022-10-06T10:23:31.627Z,2.10
2022-10-06T10:26:05.549Z,1.88
2022-10-06T10:28:46.998Z,1.95
2022-10-06T10:31:27.750Z,1.90
2022-10-06T10:34:12.517Z,2.08
2022-10-06T10:36:53.272Z,1.92
2022-10-06T10:39:28.122Z,2.20
2022-10-06T10:41:55.861Z,1.60
2022-10-06T10:44:32.518Z,1.63
2022-10-06T10:47:07.267Z,1.75
2022-10-06T10:49:35.925Z,1.90
2022-10-06T10:52:24.004Z,2.10
2022-10-06T10:55:16.209Z,2.00
2022-10-06T10:57:46.908Z,2.00
2022-10-06T11:00:22.999Z,1.73
2022-10-06T11:02:53.807Z,1.70
2022-10-06T11:05:36.429Z,1.85
2022-10-06T11:08:04.583Z,2.30
2022-10-06T11:10:43.514Z,1.90
2022-10-06T11:13:20.682Z,1.70
2022-10-06T11:16:00.453Z,1.67
2022-10-06T11:18:47.084Z,1.73
2022-10-06T11:21:19.042Z,1.65
2022-10-06T11:23:47.072Z,1.80
2022-10-06T11:26:24.712Z,1.50
2022-10-06T11:29:10.172Z,1.75
2022-10-06T11:31:40.307Z,1.80
2022-10-06T11:34:08.589Z,1.77
2022-10-06T11:36:38.739Z,1.75
2022-10-06T11:39:29.802Z,1.83
2022-10-06T11:42:14.326Z,1.83
2022-10-06T11:44:44.610Z,1.60
2022-10-06T11:47:16.409Z,1.60
2022-10-06T11:49:52.214Z,1.42
2022-10-06T11:52:19.665Z,1.50
2022-10-06T11:54:57.206Z,1.63
2022-10-06T11:57:30.624Z,1.50
2022-10-06T12:00:16.940Z,1.33
2022-10-06T12:02:45.392Z,1.67
2022-10-06T12:05:54.064Z,1.40
2022-10-06T12:08:02.949Z,1.60
2022-10-06T12:10:30.392Z,1.60
2022-10-06T12:13:09.353Z,1.50
2022-10-06T12:18:44.591Z,1.55
2022-10-06T12:21:12.195Z,1.10
2022-10-06T12:23:57.637Z,1.45
2022-10-06T12:26:34.192Z,1.30
2022-10-06T12:29:07.443Z,1.73
2022-10-06T12:31:44.145Z,1.40
2022-10-06T12:34:30.060Z,1.65
2022-10-06T12:37:16.180Z,1.52
2022-10-06T12:39:43.786Z,1.60
2022-10-06T12:42:20.226Z,1.90
2022-10-06T12:44:53.462Z,1.50
2022-10-06T12:47:31.071Z,1.95
2022-10-06T12:50:00.826Z,1.42
2022-10-06T12:52:38.232Z,1.90
2022-10-06T12:55:24.307Z,1.50
2022-10-06T12:57:53.425Z,1.60
2022-10-06T13:00:35.966Z,2.00
2022-10-06T13:03:06.327Z,1.67
2022-10-06T13:05:37.385Z,1.88
2022-10-06T13:08:06.477Z,1.20
2022-10-06T13:10:34.489Z,1.60
2022-10-06T13:13:02.312Z,1.70
2022-10-06T13:18:15.191Z,1.50
2022-10-06T13:20:42.528Z,1.60
2022-10-06T13:23:12.488Z,1.50
2022-10-06T13:25:44.194Z,1.50
2022-10-06T13:28:21.269Z,1.27
2022-10-06T13:30:56.100Z,1.60
2022-10-06T13:33:24.306Z,1.65
2022-10-06T13:35:53.254Z,1.58
2022-10-06T13:38:21.294Z,1.15
2022-10-06T13:41:07.583Z,1.40
2022-10-06T13:43:39.860Z,1.50
2022-10-06T13:46:08.563Z,1.35
2022-10-06T13:48:36.123Z,1.20
2022-10-06T13:51:03.597Z,1.20
2022-10-06T13:53:31.893Z,1.27
2022-10-06T13:55:59.518Z,1.40
2022-10-06T13:58:28.070Z,1.45
2022-10-06T14:01:01.027Z,1.45
2022-10-06T14:06:22.429Z,1.17
2022-10-06T14:08:52.523Z,1.10
2022-10-06T14:11:28.236Z,1.25
2022-10-06T14:14:02.932Z,1.55
2022-10-06T14:16:30.353Z,1.30
2022-10-06T14:19:00.052Z,1.38
2022-10-06T14:21:36.904Z,1.33
2022-10-06T14:24:16.506Z,1.23
2022-10-06T14:26:44.724Z,1.40
2022-10-06T14:29:14.337Z,1.90
2022-10-06T14:31:41.839Z,1.33
2022-10-06T14:34:14.580Z,1.58
2022-10-06T14:36:42.649Z,1.17
2022-10-06T14:39:11.949Z,1.65
2022-10-06T14:41:39.457Z,1.30
2022-10-06T14:44:09.802Z,1.30
2022-10-06T14:46:38.041Z,1.48
2022-10-06T14:49:07.692Z,1.52
2022-10-06T14:51:37.062Z,1.67
2022-10-06T14:54:05.361Z,1.50
2022-10-06T14:56:34.057Z,1.40
2022-10-06T14:59:04.652Z,1.40
2022-10-06T15:01:33.363Z,1.50
2022-10-06T15:04:02.029Z,1.42
2022-10-06T15:06:48.345Z,1.73
2022-10-06T15:09:15.976Z,1.60
2022-10-06T15:11:43.622Z,1.73
2022-10-06T15:14:11.703Z,1.60
2022-10-06T15:16:42.326Z,1.33
2022-10-06T15:19:11.060Z,1.33
2022-10-06T15:21:41.859Z,1.48
2022-10-06T15:24:11.868Z,1.70
2022-10-06T15:26:57.864Z,1.30
2022-10-06T15:29:25.216Z,1.83
2022-10-06T15:31:55.924Z,1.27
2022-10-06T15:34:25.313Z,1.38
2022-10-06T15:36:53.418Z,1.60
2022-10-06T15:39:21.792Z,1.50
2022-10-06T15:41:49.268Z,1.55
2022-10-06T15:44:17.377Z,1.40
2022-10-06T15:46:51.642Z,1.52
2022-10-06T15:49:20.256Z,1.17
2022-10-06T15:51:49.242Z,1.40
2022-10-06T15:54:21.112Z,1.63
2022-10-06T15:56:49.244Z,1.67
2022-10-06T15:59:17.228Z,1.45
2022-10-06T16:01:47.334Z,1.40
2022-10-06T16:04:38.868Z,1.42
2022-10-06T16:07:14.293Z,1.52
2022-10-06T16:09:43.574Z,1.60
2022-10-06T16:12:12.504Z,1.60
2022-10-06T16:14:39.908Z,1.55
2022-10-06T16:17:07.966Z,1.25
2022-10-06T16:19:38.328Z,1.50
2022-10-06T16:22:06.891Z,1.52
2022-10-06T16:24:34.337Z,1.60
2022-10-06T16:27:02.103Z,1.60
2022-10-06T16:29:29.665Z,1.90
2022-10-06T16:31:57.147Z,1.40
2022-10-06T16:34:25.617Z,1.65
2022-10-06T16:36:53.149Z,1.60
2022-10-06T16:39:21.504Z,1.52
2022-10-06T16:41:49.193Z,1.52
2022-10-06T16:44:16.975Z,1.40
2022-10-06T16:46:45.099Z,1.67
2022-10-06T16:49:12.933Z,1.30
2022-10-06T16:51:41.646Z,1.50
2022-10-06T16:54:10.056Z,1.42
2022-10-06T16:56:41.554Z,1.85
2022-10-06T16:59:13.750Z,5.30
2022-10-06T17:01:41.230Z,3.17
2022-10-06T17:04:13.381Z,1.90
2022-10-06T17:06:43.524Z,1.70
2022-10-06T17:09:15.032Z,1.95
2022-10-06T17:11:47.015Z,1.52
2022-10-06T17:14:14.876Z,1.63
2022-10-06T17:16:43.534Z,1.58
2022-10-06T17:19:12.341Z,1.70
2022-10-06T17:21:46.039Z,1.73
2022-10-06T17:24:14.961Z,1.73
2022-10-06T17:26:43.410Z,2.60
2022-10-06T17:29:15.546Z,3.17
2022-10-06T17:31:43.691Z,2.10
2022-10-06T17:34:12.554Z,1.70
2022-10-06T17:36:43.814Z,1.77
2022-10-06T17:39:14.433Z,2.08
2022-10-06T17:41:43.023Z,2.50
2022-10-06T17:44:13.495Z,2.08
2022-10-06T17:46:48.899Z,2.20
2022-10-06T17:49:17.107Z,3.97
2022-10-06T17:51:48.362Z,4.03
2022-10-06T17:54:19.055Z,2.90
2022-10-06T17:56:47.653Z,2.80
2022-10-06T17:59:25.953Z,4.00
2022-10-06T18:01:57.449Z,9.10
2022-10-06T18:04:25.355Z,6.43
2022-10-06T18:06:54.037Z,5.45
2022-10-06T18:09:21.976Z,3.40
2022-10-06T18:11:54.856Z,3.20
2022-10-06T18:14:22.990Z,2.58
2022-10-06T18:16:56.261Z,1.90
2022-10-06T18:19:26.583Z,1.80
2022-10-06T18:21:58.834Z,1.80
2022-10-06T18:24:27.559Z,2.30
2022-10-06T18:26:56.002Z,2.30
2022-10-06T18:29:25.289Z,1.70
2022-10-06T18:31:54.042Z,2.47
2022-10-06T18:37:09.762Z,1.88
2022-10-06T18:39:37.171Z,2.15
2022-10-06T18:42:05.512Z,1.92
2022-10-06T18:44:51.648Z,2.30
2022-10-06T18:47:37.753Z,2.08
2022-10-06T18:50:05.264Z,1.80
2022-10-06T18:52:32.673Z,2.00
2022-10-06T18:55:00.538Z,2.00
2022-10-06T18:57:28.152Z,2.00
2022-10-06T18:59:55.563Z,1.95
2022-10-06T19:02:23.187Z,2.15
2022-10-06T19:04:50.796Z,1.55
2022-10-06T19:07:18.170Z,1.75
2022-10-06T19:09:47.068Z,1.90
2022-10-06T19:12:15.055Z,1.65
2022-10-06T19:14:47.660Z,1.90
2022-10-06T19:17:16.070Z,1.80
2022-10-06T19:19:55.428Z,1.88
2022-10-06T19:22:25.175Z,1.80
2022-10-06T19:24:52.546Z,1.92
2022-10-06T19:27:24.180Z,1.58
2022-10-06T19:30:15.729Z,1.80
2022-10-06T19:32:43.466Z,2.10
2022-10-06T19:35:11.074Z,2.20
2022-10-06T19:37:38.670Z,1.85
2022-10-06T19:40:08.753Z,1.42
2022-10-06T19:42:48.451Z,1.48
2022-10-06T19:45:16.267Z,1.98
2022-10-06T19:47:45.500Z,2.63
2022-10-06T19:50:13.598Z,2.15
2022-10-06T19:52:42.115Z,1.83
2022-10-06T19:55:09.874Z,2.00
2022-10-06T19:57:37.369Z,2.10
2022-10-06T20:00:06.141Z,2.15
2022-10-06T20:02:41.298Z,1.98
2022-10-06T20:05:09.828Z,2.30
2022-10-06T20:07:37.295Z,2.00
2022-10-06T20:10:04.826Z,1.95
2022-10-06T20:12:33.796Z,1.90
2022-10-06T20:15:01.267Z,2.20
2022-10-06T20:17:29.085Z,1.95
2022-10-06T20:19:57.875Z,2.22
2022-10-06T20:22:26.537Z,1.50
2022-10-06T20:24:53.994Z,1.90
2022-10-06T20:27:21.343Z,1.90
2022-10-06T20:29:48.802Z,1.80
2022-10-06T20:32:16.251Z,2.40
2022-10-06T20:34:44.779Z,2.00
2022-10-06T20:37:12.227Z,1.90
2022-10-06T20:39:58.417Z,1.90
2022-10-06T20:42:28.048Z,1.70
2022-10-06T20:44:55.426Z,1.80
2022-10-06T20:47:23.442Z,1.80
2022-10-06T20:49:55.407Z,2.30
2022-10-06T20:52:25.922Z,2.00
2022-10-06T20:54:53.348Z,1.93
2022-10-06T20:57:20.745Z,1.87
2022-10-06T20:59:48.526Z,1.87
2022-10-06T21:02:15.935Z,1.80
2022-10-06T21:04:46.123Z,1.73
2022-10-06T21:07:13.526Z,1.90
2022-10-06T21:09:41.003Z,1.70
2022-10-06T21:12:08.543Z,1.97
2022-10-06T21:14:36.283Z,1.87
2022-10-06T21:17:04.252Z,1.90
2022-10-06T21:19:34.160Z,1.70
2022-10-06T21:22:04.730Z,1.53
2022-10-06T21:24:32.155Z,1.90
2022-10-06T21:26:59.831Z,2.00
2022-10-06T21:29:27.405Z,1.80
2022-10-06T21:31:55.426Z,1.80
2022-10-06T21:34:22.801Z,1.97
2022-10-06T21:36:50.276Z,1.70
2022-10-06T21:39:17.664Z,1.77
2022-10-06T21:41:45.038Z,1.60
2022-10-06T21:44:16.313Z,1.80
2022-10-06T21:46:47.007Z,1.80
2022-10-06T21:49:15.663Z,1.80
2022-10-06T21:51:45.697Z,1.87
2022-10-06T21:54:13.181Z,2.17
2022-10-06T21:56:40.722Z,1.83
2022-10-06T21:59:08.603Z,1.80
2022-10-06T22:01:37.353Z,1.70
2022-10-06T22:04:04.824Z,1.90
2022-10-06T22:06:32.892Z,1.63
2022-10-06T22:09:00.834Z,1.60
2022-10-06T22:11:29.355Z,1.73
2022-10-06T22:13:58.104Z,2.33
2022-10-06T22:16:26.476Z,1.80
2022-10-06T22:18:53.909Z,1.83
2022-10-06T22:21:21.291Z,1.83
2022-10-06T22:23:53.391Z,1.60
2022-10-06T22:26:20.720Z,1.47
2022-10-06T22:28:49.258Z,2.27
2022-10-06T22:31:19.023Z,1.47
2022-10-06T22:33:52.012Z,1.80
2022-10-06T22:36:19.418Z,1.67
2022-10-06T22:38:46.778Z,1.70
2022-10-06T22:41:14.821Z,1.87
2022-10-06T22:43:42.312Z,1.97
2022-10-06T22:46:10.855Z,1.80
2022-10-06T22:48:38.599Z,1.80
2022-10-06T22:51:06.626Z,1.70
2022-10-06T22:53:34.088Z,1.80
2022-10-06T22:56:02.243Z,1.90
2022-10-06T22:58:29.610Z,1.73
2022-10-06T23:00:57.074Z,2.00
2022-10-06T23:03:24.526Z,1.73
2022-10-06T23:05:59.114Z,1.90
2022-10-06T23:08:30.137Z,1.83
2022-10-06T23:11:09.231Z,1.80
2022-10-06T23:13:36.649Z,1.90
2022-10-06T23:16:08.069Z,1.60
2022-10-06T23:18:36.986Z,1.70
2022-10-06T23:21:05.500Z,1.80
2022-10-06T23:23:32.959Z,2.00
2022-10-06T23:26:06.379Z,1.83
2022-10-06T23:28:33.911Z,1.60
2022-10-06T23:31:01.547Z,1.93
2022-10-06T23:33:31.324Z,1.63
2022-10-06T23:36:02.251Z,1.83
2022-10-06T23:38:29.723Z,2.00
2022-10-06T23:40:57.148Z,2.07
2022-10-06T23:43:24.691Z,2.00
2022-10-06T23:45:52.125Z,2.00
2022-10-06T23:48:19.597Z,2.03
2022-10-06T23:51:07.297Z,1.80
2022-10-06T23:53:35.371Z,1.70
2022-10-06T23:56:02.786Z,1.90
2022-10-06T23:58:30.103Z,1.90
